Time;durP1;ratioP1;P1;durP2;ratioP2;P2;SDS_P1;SDS_P2;PMS_P1;PMS_P2;Temp;Humidity;BMP_temperature;BMP_pressure;BME280_temperature;BME280_humidity;BME280_pressure;Samples;Min_cycle;Max_cycle;Signal;HPM_P1;HPM_P2
2023/09/01 00:01:03;;;;;;;11.30;5.15;;;17.00;99.90;;;;;;5084613;28;20016;-72
2023/09/01 00:03:29;;;;;;;18.10;5.97;;;17.00;99.90;;;;;;5077491;28;20408;-71
2023/09/01 00:05:54;;;;;;;14.35;5.90;;;17.00;99.90;;;;;;5091797;28;20027;-71
2023/09/01 00:08:20;;;;;;;12.45;5.72;;;17.00;99.90;;;;;;5091766;28;20036;-71
2023/09/01 00:10:46;;;;;;;15.43;5.80;;;17.00;99.90;;;;;;5087853;28;20048;-72
2023/09/01 00:13:12;;;;;;;15.30;5.35;;;17.00;99.90;;;;;;5076113;28;20096;-72
2023/09/01 00:15:37;;;;;;;12.02;5.20;;;17.00;99.90;;;;;;5087295;28;20111;-72
2023/09/01 00:18:05;;;;;;;14.02;5.15;;;17.00;99.90;;;;;;5084607;28;20016;-72
2023/09/01 00:20:34;;;;;;;14.68;5.30;;;17.00;99.90;;;;;;5090865;28;20379;-72
2023/09/01 00:23:01;;;;;;;13.27;5.95;;;17.00;99.90;;;;;;5078176;28;20020;-71
2023/09/01 00:25:27;;;;;;;15.40;6.15;;;17.00;99.90;;;;;;5092191;28;20020;-72
2023/09/01 00:27:52;;;;;;;12.90;6.10;;;17.00;99.90;;;;;;5091492;28;20024;-72
2023/09/01 00:30:18;;;;;;;12.55;5.63;;;16.90;99.90;;;;;;5091023;28;20016;-72
2023/09/01 00:32:44;;;;;;;15.50;6.35;;;17.00;99.90;;;;;;5081597;28;20027;-72
2023/09/01 00:35:10;;;;;;;15.27;6.15;;;16.90;99.90;;;;;;5090950;28;20008;-72
2023/09/01 00:37:37;;;;;;;12.52;5.72;;;16.90;99.90;;;;;;5085819;28;20020;-72
2023/09/01 00:40:03;;;;;;;15.00;6.57;;;16.90;99.90;;;;;;5084546;28;20024;-71
2023/09/01 00:42:29;;;;;;;12.38;5.97;;;16.90;99.90;;;;;;5083532;28;20077;-72
2023/09/01 00:44:55;;;;;;;17.45;6.30;;;16.90;99.90;;;;;;5077006;28;20028;-71
2023/09/01 00:47:21;;;;;;;13.52;5.93;;;16.90;99.90;;;;;;5081813;28;20341;-72
2023/09/01 00:49:47;;;;;;;13.77;5.78;;;16.90;99.90;;;;;;5088911;28;20028;-72
2023/09/01 00:52:12;;;;;;;16.00;5.70;;;16.90;99.90;;;;;;5077116;28;20494;-72
2023/09/01 00:54:38;;;;;;;16.55;6.07;;;16.90;99.90;;;;;;5091235;28;20020;-71
2023/09/01 00:57:04;;;;;;;13.82;5.72;;;16.90;99.90;;;;;;5075664;28;20024;-72
2023/09/01 00:59:30;;;;;;;11.50;5.35;;;16.90;99.90;;;;;;5083423;28;20251;-72
2023/09/01 01:01:56;;;;;;;12.85;5.63;;;16.90;99.90;;;;;;5089720;28;20032;-72
2023/09/01 01:04:23;;;;;;;15.65;5.57;;;16.90;99.90;;;;;;5077667;28;20487;-71
2023/09/01 01:07:06;;;;;;;13.43;5.55;;;16.80;99.90;;;;;;5080067;28;20605;-72
2023/09/01 01:10:06;;;;;;;13.27;6.28;;;16.80;99.90;;;;;;5090896;28;20028;-72
2023/09/01 01:12:49;;;;;;;15.65;6.18;;;16.90;99.90;;;;;;5079391;28;20351;-71
2023/09/01 01:15:16;;;;;;;14.20;6.18;;;16.80;99.90;;;;;;5077391;28;20105;-71
2023/09/01 01:17:44;;;;;;;12.73;6.60;;;16.80;99.90;;;;;;5086952;28;20088;-71
2023/09/01 01:20:16;;;;;;;14.65;6.35;;;16.80;99.90;;;;;;5091006;28;20020;-71
2023/09/01 01:23:04;;;;;;;15.75;6.00;;;16.80;99.90;;;;;;5087040;28;20042;-71
2023/09/01 01:25:30;;;;;;;11.55;5.97;;;16.80;99.90;;;;;;5079256;28;20036;-71
2023/09/01 01:27:57;;;;;;;15.15;5.90;;;16.80;99.90;;;;;;5082722;28;20070;-71
2023/09/01 01:30:22;;;;;;;11.52;6.55;;;16.80;99.90;;;;;;5076673;28;20051;-72
2023/09/01 01:32:49;;;;;;;17.95;6.57;;;16.80;99.90;;;;;;5081734;28;20028;-71
2023/09/01 01:35:53;;;;;;;13.48;6.60;;;16.80;99.90;;;;;;5079565;28;20017;-72
2023/09/01 01:38:26;;;;;;;15.27;6.35;;;16.80;99.90;;;;;;5085256;28;20032;-72
2023/09/01 01:40:58;;;;;;;14.68;6.68;;;16.80;99.90;;;;;;5087109;28;20024;-72
2023/09/01 01:43:27;;;;;;;15.90;6.90;;;16.80;99.90;;;;;;5090020;28;20073;-72
2023/09/01 01:45:54;;;;;;;15.95;7.30;;;16.80;99.90;;;;;;5079575;28;20105;-72
2023/09/01 01:48:19;;;;;;;18.15;7.80;;;16.70;99.90;;;;;;5086796;28;20032;-72
2023/09/01 01:50:45;;;;;;;18.33;7.55;;;16.70;99.90;;;;;;5083506;28;20017;-72
2023/09/01 01:53:13;;;;;;;15.35;7.15;;;16.70;99.90;;;;;;5077216;28;20123;-71
2023/09/01 01:55:38;;;;;;;15.77;7.03;;;16.70;99.90;;;;;;5072685;28;20059;-72
2023/09/01 01:58:05;;;;;;;17.42;7.30;;;16.70;99.90;;;;;;5079579;28;20059;-72
2023/09/01 02:00:31;;;;;;;16.70;7.35;;;16.70;99.90;;;;;;5086360;28;20027;-72
2023/09/01 02:02:56;;;;;;;19.48;7.70;;;16.70;99.90;;;;;;5080239;28;20380;-72
2023/09/01 02:05:22;;;;;;;13.57;6.68;;;16.70;99.90;;;;;;5089697;28;20066;-71
2023/09/01 02:07:48;;;;;;;15.15;7.30;;;16.70;99.90;;;;;;5090154;28;20012;-71
2023/09/01 02:10:13;;;;;;;15.88;7.30;;;16.70;99.90;;;;;;5077889;28;20048;-72
2023/09/01 02:12:39;;;;;;;15.75;6.93;;;16.70;99.90;;;;;;5092922;28;20107;-72
2023/09/01 02:15:08;;;;;;;19.85;7.13;;;16.80;99.90;;;;;;5094410;28;20022;-72
2023/09/01 02:17:37;;;;;;;18.23;7.53;;;16.70;99.90;;;;;;5094012;28;20020;-71
2023/09/01 02:20:16;;;;;;;16.77;7.43;;;16.70;99.90;;;;;;5094613;28;20422;-72
2023/09/01 02:22:51;;;;;;;15.80;7.28;;;16.70;99.90;;;;;;5093873;28;20126;-71
2023/09/01 02:25:17;;;;;;;12.63;6.30;;;16.70;99.90;;;;;;5082128;28;20037;-71
2023/09/01 02:27:43;;;;;;;14.00;6.63;;;16.70;99.90;;;;;;5075583;28;20506;-72
2023/09/01 02:30:11;;;;;;;18.38;6.70;;;16.70;99.90;;;;;;5075355;28;20013;-71
2023/09/01 02:32:37;;;;;;;15.65;6.40;;;16.70;99.90;;;;;;5086330;28;20108;-71
2023/09/01 02:35:06;;;;;;;16.38;6.32;;;16.70;99.90;;;;;;5093792;28;20661;-71
2023/09/01 02:37:36;;;;;;;19.55;6.70;;;16.70;99.90;;;;;;5093773;28;20027;-72
2023/09/01 02:40:10;;;;;;;16.70;6.50;;;16.70;99.90;;;;;;5084973;28;20027;-71
2023/09/01 02:42:37;;;;;;;20.60;7.13;;;16.70;99.90;;;;;;5093729;28;20052;-72
2023/09/01 02:45:02;;;;;;;16.77;7.55;;;16.60;99.90;;;;;;5093396;28;20468;-71
2023/09/01 02:47:28;;;;;;;17.98;7.38;;;16.70;99.90;;;;;;5093344;28;20024;-72
2023/09/01 02:49:54;;;;;;;15.75;7.13;;;16.60;99.90;;;;;;5088969;28;20016;-72
2023/09/01 02:52:19;;;;;;;18.33;7.50;;;16.70;99.90;;;;;;5093983;28;20024;-72
2023/09/01 02:54:45;;;;;;;18.48;6.97;;;16.60;99.90;;;;;;5091819;28;20118;-71
2023/09/01 02:57:10;;;;;;;17.55;7.10;;;16.70;99.90;;;;;;5093340;28;20016;-71
2023/09/01 02:59:37;;;;;;;19.50;7.80;;;16.70;99.90;;;;;;5092601;28;20047;-72
2023/09/01 03:02:03;;;;;;;15.48;7.97;;;16.70;99.90;;;;;;5083117;28;20062;-72
2023/09/01 03:04:30;;;;;;;19.98;8.13;;;16.60;99.90;;;;;;5078630;28;20024;-72
2023/09/01 03:06:57;;;;;;;17.67;8.02;;;16.60;99.90;;;;;;5073902;28;20498;-71
2023/09/01 03:09:22;;;;;;;18.40;8.20;;;16.70;99.90;;;;;;5081830;28;20089;-71
2023/09/01 03:11:49;;;;;;;17.90;8.35;;;16.60;99.90;;;;;;5082559;28;20091;-71
2023/09/01 03:14:14;;;;;;;18.73;8.52;;;16.60;99.90;;;;;;5081213;28;20043;-72
2023/09/01 03:16:41;;;;;;;17.02;8.57;;;16.60;99.90;;;;;;5092802;28;20051;-71
2023/09/01 03:19:07;;;;;;;17.75;8.07;;;16.60;99.90;;;;;;5081184;28;20430;-71
2023/09/01 03:21:33;;;;;;;20.48;8.85;;;16.60;99.90;;;;;;5090884;28;20031;-71
2023/09/01 03:23:59;;;;;;;16.35;8.38;;;16.60;99.90;;;;;;5092644;28;20036;-72
2023/09/01 03:26:24;;;;;;;17.70;8.65;;;16.60;99.90;;;;;;5084537;28;20060;-71
2023/09/01 03:28:50;;;;;;;18.85;7.80;;;16.60;99.90;;;;;;5087424;28;20016;-72
2023/09/01 03:31:16;;;;;;;20.10;8.23;;;16.60;99.90;;;;;;5084575;28;20379;-71
2023/09/01 03:33:42;;;;;;;18.40;7.85;;;16.60;99.90;;;;;;5087524;28;20025;-72
2023/09/01 03:36:08;;;;;;;15.32;8.52;;;16.60;99.90;;;;;;5080097;28;20543;-71
2023/09/01 03:38:34;;;;;;;16.45;7.68;;;16.50;99.90;;;;;;5076956;28;20016;-71
2023/09/01 03:41:04;;;;;;;20.30;8.48;;;16.50;99.90;;;;;;5092543;28;20468;-71
2023/09/01 03:43:30;;;;;;;20.90;8.10;;;16.50;99.90;;;;;;5091871;28;20483;-71
2023/09/01 03:45:57;;;;;;;16.92;7.78;;;16.50;99.90;;;;;;5092412;28;20032;-71
2023/09/01 03:48:23;;;;;;;19.35;8.43;;;16.50;99.90;;;;;;5085963;28;20032;-72
2023/09/01 03:51:14;;;;;;;17.38;7.70;;;16.50;99.90;;;;;;5090955;28;20020;-72
2023/09/01 03:53:39;;;;;;;16.83;8.00;;;16.50;99.90;;;;;;5087777;28;20177;-71
2023/09/01 03:56:17;;;;;;;16.05;7.75;;;16.60;99.90;;;;;;5089068;28;20467;-71
2023/09/01 03:58:43;;;;;;;21.17;7.93;;;16.50;99.90;;;;;;5077168;28;20055;-71
2023/09/01 04:01:14;;;;;;;19.67;8.10;;;16.50;99.90;;;;;;5080728;28;20021;-72
2023/09/01 04:03:40;;;;;;;17.05;7.43;;;16.50;99.90;;;;;;5088980;28;20020;-72
2023/09/01 04:06:06;;;;;;;17.63;7.55;;;16.50;99.90;;;;;;5092098;28;20027;-71
2023/09/01 04:08:35;;;;;;;18.90;8.35;;;16.50;99.90;;;;;;5092032;28;20401;-71
2023/09/01 04:11:02;;;;;;;15.82;7.18;;;16.50;99.90;;;;;;5078480;28;20027;-71
2023/09/01 04:13:28;;;;;;;17.23;7.80;;;16.50;99.90;;;;;;5092116;28;20032;-71
2023/09/01 04:15:55;;;;;;;16.33;7.50;;;16.50;99.90;;;;;;5086502;28;20016;-72
2023/09/01 04:18:22;;;;;;;17.45;7.32;;;16.50;99.90;;;;;;5084564;28;20009;-72
2023/09/01 04:20:52;;;;;;;19.52;8.02;;;16.50;99.90;;;;;;5073737;28;20027;-71
2023/09/01 04:23:18;;;;;;;18.23;7.95;;;16.50;99.90;;;;;;5091663;28;20028;-71
2023/09/01 04:25:48;;;;;;;15.43;8.63;;;16.50;99.90;;;;;;5080649;28;20033;-71
2023/09/01 04:28:14;;;;;;;19.77;9.13;;;16.50;99.90;;;;;;5087540;28;20024;-71
2023/09/01 04:30:40;;;;;;;17.95;8.90;;;16.50;99.90;;;;;;5083181;28;20099;-71
2023/09/01 04:33:06;;;;;;;17.95;10.00;;;16.50;99.90;;;;;;5084026;28;20103;-72
2023/09/01 04:35:35;;;;;;;19.17;9.65;;;16.50;99.90;;;;;;5084273;28;20435;-71
2023/09/01 04:38:02;;;;;;;16.65;8.80;;;16.50;99.90;;;;;;5083524;28;20091;-71
2023/09/01 04:40:28;;;;;;;16.38;8.57;;;16.50;99.90;;;;;;5086181;28;20023;-72
2023/09/01 04:42:54;;;;;;;14.15;8.75;;;16.50;99.90;;;;;;5082062;28;20040;-71
2023/09/01 04:45:20;;;;;;;14.13;8.10;;;16.50;99.90;;;;;;5087254;28;20020;-72
2023/09/01 04:47:46;;;;;;;19.33;10.98;;;16.50;99.90;;;;;;5078564;28;20026;-71
2023/09/01 04:50:11;;;;;;;20.35;8.95;;;16.50;99.90;;;;;;5083436;28;20012;-71
2023/09/01 04:52:37;;;;;;;16.48;8.63;;;16.40;99.90;;;;;;5090051;28;20032;-71
2023/09/01 04:55:04;;;;;;;14.93;8.55;;;16.40;99.90;;;;;;5085804;28;20108;-72
2023/09/01 04:57:30;;;;;;;15.43;8.30;;;16.40;99.90;;;;;;5091847;28;20589;-72
2023/09/01 04:59:56;;;;;;;15.90;8.93;;;16.40;99.90;;;;;;5092817;28;20023;-72
2023/09/01 05:02:21;;;;;;;19.27;9.10;;;16.40;99.90;;;;;;5084348;28;20033;-72
2023/09/01 05:04:47;;;;;;;18.05;9.38;;;16.40;99.90;;;;;;5084061;28;20444;-72
2023/09/01 05:07:13;;;;;;;14.20;9.48;;;16.50;99.90;;;;;;5087831;28;20157;-72
2023/09/01 05:09:38;;;;;;;16.73;9.63;;;16.50;99.90;;;;;;5087135;28;20373;-72
2023/09/01 05:12:05;;;;;;;17.85;9.90;;;16.50;99.90;;;;;;5090357;28;20035;-72
2023/09/01 05:14:30;;;;;;;17.83;9.98;;;16.50;99.90;;;;;;5084842;28;20017;-72
2023/09/01 05:16:56;;;;;;;17.58;9.68;;;16.40;99.90;;;;;;5081684;28;20601;-72
2023/09/01 05:19:22;;;;;;;17.75;9.77;;;16.40;99.90;;;;;;5078046;28;20040;-72
2023/09/01 05:21:48;;;;;;;18.02;9.75;;;16.50;99.90;;;;;;5071277;28;20103;-71
2023/09/01 05:24:14;;;;;;;21.23;10.15;;;16.50;99.90;;;;;;5084348;28;20021;-72
2023/09/01 05:26:40;;;;;;;21.02;10.13;;;16.50;99.90;;;;;;5085882;28;20018;-72
2023/09/01 05:29:06;;;;;;;22.33;10.13;;;16.40;99.90;;;;;;5085890;28;20024;-72
2023/09/01 05:31:31;;;;;;;20.27;10.60;;;16.40;99.90;;;;;;5086212;28;20031;-71
2023/09/01 05:33:57;;;;;;;18.05;10.55;;;16.40;99.90;;;;;;5081228;28;20087;-71
2023/09/01 05:36:23;;;;;;;19.10;10.65;;;16.40;99.90;;;;;;5083590;28;20513;-72
2023/09/01 05:38:48;;;;;;;18.45;9.88;;;16.40;99.90;;;;;;5077240;28;20020;-71
2023/09/01 05:41:14;;;;;;;18.13;10.25;;;16.40;99.90;;;;;;5077435;28;20051;-76
2023/09/01 05:43:40;;;;;;;17.38;9.73;;;16.50;99.90;;;;;;5089406;28;20402;-71
2023/09/01 05:46:06;;;;;;;18.83;10.00;;;16.50;99.90;;;;;;5090282;28;20105;-71
2023/09/01 05:48:31;;;;;;;19.88;9.95;;;16.50;99.90;;;;;;5084428;28;20056;-71
2023/09/01 05:50:57;;;;;;;19.17;9.82;;;16.50;99.90;;;;;;5091243;28;20020;-71
2023/09/01 05:53:23;;;;;;;21.10;9.98;;;16.50;99.90;;;;;;5088466;28;20035;-71
2023/09/01 05:55:48;;;;;;;21.73;10.20;;;16.50;99.90;;;;;;5071712;28;20017;-71
2023/09/01 05:58:14;;;;;;;18.55;10.48;;;16.50;99.90;;;;;;5076030;28;20040;-71
2023/09/01 06:00:40;;;;;;;22.73;10.75;;;16.60;99.90;;;;;;5083336;28;20480;-72
2023/09/01 06:03:06;;;;;;;18.05;10.07;;;16.60;99.90;;;;;;5085793;28;20103;-72
2023/09/01 06:05:31;;;;;;;20.60;10.45;;;16.60;99.90;;;;;;5086818;28;20021;-73
2023/09/01 06:07:57;;;;;;;16.58;8.82;;;16.60;99.90;;;;;;5086462;28;20026;-72
2023/09/01 06:10:23;;;;;;;23.55;10.77;;;16.60;99.90;;;;;;5090218;28;20031;-72
2023/09/01 06:12:48;;;;;;;22.02;10.77;;;16.60;99.90;;;;;;5089404;28;20078;-72
2023/09/01 06:15:14;;;;;;;17.85;10.50;;;16.60;99.90;;;;;;5078660;28;20020;-72
2023/09/01 06:17:40;;;;;;;17.88;9.52;;;16.60;99.90;;;;;;5086693;28;20012;-72
2023/09/01 06:20:06;;;;;;;17.73;9.57;;;16.70;99.90;;;;;;5084316;28;20411;-72
2023/09/01 06:22:35;;;;;;;18.95;9.27;;;16.70;99.90;;;;;;5086567;28;20071;-72
2023/09/01 06:25:03;;;;;;;18.60;9.93;;;16.70;99.90;;;;;;5076212;28;20020;-72
2023/09/01 06:27:28;;;;;;;21.27;10.45;;;16.70;99.90;;;;;;5086505;28;20028;-72
2023/09/01 06:29:56;;;;;;;18.15;9.55;;;16.70;99.90;;;;;;5084802;28;20016;-72
2023/09/01 06:32:23;;;;;;;25.80;10.55;;;16.70;99.90;;;;;;5087682;28;20032;-72
2023/09/01 06:34:49;;;;;;;17.40;9.38;;;16.80;99.90;;;;;;5087681;28;20023;-72
2023/09/01 06:37:15;;;;;;;18.50;9.60;;;16.80;99.90;;;;;;5082362;28;20391;-72
2023/09/01 06:39:40;;;;;;;23.23;9.32;;;16.80;99.90;;;;;;5086918;28;20167;-72
2023/09/01 06:42:07;;;;;;;31.80;10.82;;;16.80;99.90;;;;;;5087348;28;20508;-72
2023/09/01 06:44:32;;;;;;;20.85;9.93;;;16.80;99.90;;;;;;5086468;28;20023;-72
2023/09/01 06:46:58;;;;;;;16.48;9.55;;;16.90;99.90;;;;;;5079798;28;20024;-72
2023/09/01 06:49:23;;;;;;;18.58;9.73;;;16.90;99.90;;;;;;5086358;28;20024;-72
2023/09/01 06:51:49;;;;;;;15.80;8.85;;;16.80;99.90;;;;;;5086256;28;20016;-72
2023/09/01 06:54:15;;;;;;;18.83;9.20;;;16.90;99.90;;;;;;5088007;28;20020;-72
2023/09/01 06:56:40;;;;;;;15.63;8.85;;;16.80;99.90;;;;;;5092152;28;20510;-72
2023/09/01 06:59:06;;;;;;;14.82;8.38;;;16.90;99.90;;;;;;5084609;28;20083;-72
2023/09/01 07:01:31;;;;;;;19.60;9.35;;;16.90;99.90;;;;;;5073713;28;20024;-72
2023/09/01 07:03:57;;;;;;;16.08;8.50;;;16.90;99.90;;;;;;5073028;28;20024;-71
2023/09/01 07:06:23;;;;;;;18.27;8.30;;;16.80;99.90;;;;;;5087085;28;20028;-70
2023/09/01 07:08:48;;;;;;;13.18;8.45;;;16.90;99.90;;;;;;5079821;28;20023;-71
2023/09/01 07:11:19;;;;;;;15.10;8.32;;;16.80;99.90;;;;;;5079426;28;20048;-71
2023/09/01 07:13:46;;;;;;;16.10;8.57;;;16.80;99.90;;;;;;5080798;28;20033;-71
2023/09/01 07:16:12;;;;;;;17.17;8.60;;;16.90;99.90;;;;;;5093058;28;20114;-71
2023/09/01 07:18:38;;;;;;;13.02;8.18;;;16.90;99.90;;;;;;5093246;28;20016;-71
2023/09/01 07:21:04;;;;;;;17.27;8.43;;;16.90;99.90;;;;;;5079710;28;20517;-71
2023/09/01 07:23:30;;;;;;;17.75;8.88;;;17.00;99.90;;;;;;5092775;28;20054;-71
2023/09/01 07:25:56;;;;;;;15.80;9.07;;;17.00;99.90;;;;;;5086408;28;20452;-70
2023/09/01 07:28:22;;;;;;;15.73;9.13;;;17.00;99.90;;;;;;5084399;28;20021;-71
2023/09/01 07:30:48;;;;;;;17.90;10.85;;;17.00;99.90;;;;;;5085902;28;20560;-71
2023/09/01 07:33:14;;;;;;;19.73;11.40;;;17.00;99.90;;;;;;5091808;28;20024;-71
2023/09/01 07:35:46;;;;;;;16.70;10.45;;;17.00;99.90;;;;;;5081472;28;20063;-70
2023/09/01 07:38:11;;;;;;;16.38;8.80;;;17.10;99.90;;;;;;5090568;28;20440;-71
2023/09/01 07:40:37;;;;;;;16.23;9.73;;;17.10;99.90;;;;;;5090961;28;20091;-71
2023/09/01 07:43:03;;;;;;;16.25;8.77;;;17.10;99.90;;;;;;5091586;28;20039;-71
2023/09/01 07:45:28;;;;;;;14.35;8.23;;;17.10;99.90;;;;;;5092322;28;20081;-70
2023/09/01 07:47:54;;;;;;;15.02;8.07;;;17.20;99.90;;;;;;5090711;28;20350;-70
2023/09/01 07:50:23;;;;;;;18.58;8.40;;;17.20;99.90;;;;;;5092498;28;20016;-71
2023/09/01 07:52:50;;;;;;;14.27;7.60;;;17.20;99.90;;;;;;5092353;28;20031;-71
2023/09/01 07:55:16;;;;;;;16.08;7.47;;;17.20;99.90;;;;;;5087812;28;20386;-71
2023/09/01 07:57:41;;;;;;;13.90;8.05;;;17.20;99.90;;;;;;5087857;28;20024;-71
2023/09/01 08:00:08;;;;;;;13.25;7.28;;;17.20;99.90;;;;;;5089001;28;20482;-71
2023/09/01 08:02:34;;;;;;;14.88;7.90;;;17.20;99.90;;;;;;5085908;28;20028;-71
2023/09/01 08:05:03;;;;;;;19.00;8.85;;;17.30;99.90;;;;;;5083828;28;20016;-70
2023/09/01 08:07:31;;;;;;;14.38;7.57;;;17.30;99.90;;;;;;5091821;28;20471;-71
2023/09/01 08:09:58;;;;;;;12.95;7.47;;;17.30;99.90;;;;;;5091763;28;20028;-70
2023/09/01 08:12:25;;;;;;;15.60;8.32;;;17.30;99.90;;;;;;5091332;28;20028;-70
2023/09/01 08:14:50;;;;;;;15.70;8.15;;;17.30;99.90;;;;;;5091356;28;20016;-72
2023/09/01 08:17:16;;;;;;;22.50;8.10;;;17.30;99.90;;;;;;5090125;28;20074;-73
2023/09/01 08:19:45;;;;;;;18.13;8.13;;;17.30;99.90;;;;;;5078449;28;20044;-73
2023/09/01 08:22:11;;;;;;;12.82;7.63;;;17.30;99.90;;;;;;5091253;28;20110;-73
2023/09/01 08:24:36;;;;;;;23.65;8.02;;;17.30;99.90;;;;;;5076521;28;20088;-73
2023/09/01 08:27:03;;;;;;;27.08;8.63;;;17.40;99.90;;;;;;5090844;28;20037;-73
2023/09/01 08:29:30;;;;;;;19.60;7.85;;;17.40;99.90;;;;;;5076142;28;20050;-70
2023/09/01 08:31:56;;;;;;;15.60;7.85;;;17.50;99.90;;;;;;5091529;28;20081;-72
2023/09/01 08:34:21;;;;;;;46.22;8.82;;;17.40;99.90;;;;;;5091292;28;20028;-73
2023/09/01 08:36:48;;;;;;;19.08;7.90;;;17.50;99.90;;;;;;5091457;28;20416;-73
2023/09/01 08:39:14;;;;;;;14.05;7.80;;;17.50;99.90;;;;;;5091437;28;20089;-73
2023/09/01 08:41:41;;;;;;;13.40;7.78;;;17.60;99.90;;;;;;5086617;28;20428;-73
2023/09/01 08:44:10;;;;;;;58.60;9.15;;;17.60;99.90;;;;;;5087115;28;20020;-72
2023/09/01 08:46:36;;;;;;;20.15;7.78;;;17.60;99.90;;;;;;5090636;28;20380;-72
2023/09/01 08:49:04;;;;;;;24.40;8.18;;;17.70;99.90;;;;;;5080974;28;20508;-73
2023/09/01 08:51:30;;;;;;;15.18;7.78;;;17.70;99.90;;;;;;5085081;28;20024;-71
2023/09/01 08:53:56;;;;;;;13.57;7.20;;;17.70;99.90;;;;;;5071355;28;20073;-76
2023/09/01 08:56:22;;;;;;;12.50;7.20;;;17.70;99.90;;;;;;5071691;28;20024;-72
2023/09/01 08:58:47;;;;;;;28.20;7.85;;;17.70;99.90;;;;;;5072545;28;20150;-73
2023/09/01 09:01:15;;;;;;;14.55;7.38;;;17.70;99.90;;;;;;5070709;28;20355;-72
2023/09/01 09:03:42;;;;;;;13.75;7.60;;;17.70;99.90;;;;;;5089923;28;20407;-73
2023/09/01 09:06:12;;;;;;;52.40;9.32;;;17.70;99.90;;;;;;5078570;28;20028;-73
2023/09/01 09:08:38;;;;;;;18.48;7.32;;;17.80;99.90;;;;;;5086671;28;20020;-72
2023/09/01 09:11:12;;;;;;;14.75;7.55;;;17.80;99.90;;;;;;5077034;28;20099;-72
2023/09/01 09:13:39;;;;;;;26.30;7.55;;;17.80;99.90;;;;;;5090839;28;20031;-72
2023/09/01 09:16:09;;;;;;;20.67;7.57;;;17.80;99.90;;;;;;5091710;28;20055;-73
2023/09/01 09:18:35;;;;;;;11.23;7.90;;;17.80;99.90;;;;;;5090205;28;20032;-73
2023/09/01 09:21:02;;;;;;;18.45;8.07;;;17.80;99.90;;;;;;5076366;28;20020;-73
2023/09/01 09:23:44;;;;;;;17.98;8.57;;;17.90;99.90;;;;;;5090867;28;20458;-73
2023/09/01 09:26:11;;;;;;;17.90;8.77;;;17.90;99.90;;;;;;5090143;28;20023;-72
2023/09/01 09:28:36;;;;;;;24.40;9.35;;;17.90;99.90;;;;;;5085942;28;20025;-73
2023/09/01 09:31:02;;;;;;;16.85;8.38;;;17.90;99.90;;;;;;5073878;28;20113;-73
2023/09/01 09:33:30;;;;;;;37.67;9.82;;;18.00;99.90;;;;;;5085331;28;20027;-73
2023/09/01 09:35:56;;;;;;;13.93;8.82;;;18.00;99.90;;;;;;5083698;28;20017;-71
2023/09/01 09:38:22;;;;;;;16.40;9.57;;;18.00;99.90;;;;;;5081629;28;20031;-72
2023/09/01 09:40:58;;;;;;;14.30;9.27;;;18.10;99.90;;;;;;5079878;28;20039;-73
2023/09/01 09:43:23;;;;;;;16.48;9.57;;;18.20;99.90;;;;;;5083360;28;20037;-73
2023/09/01 09:45:52;;;;;;;13.82;9.50;;;18.30;99.90;;;;;;5080988;28;20024;-73
2023/09/01 09:48:19;;;;;;;15.57;9.32;;;18.30;99.90;;;;;;5092777;28;20008;-73
2023/09/01 09:50:50;;;;;;;13.52;8.75;;;18.40;99.90;;;;;;5085748;28;20056;-72
2023/09/01 09:53:21;;;;;;;17.95;9.55;;;18.60;99.90;;;;;;5086923;28;20065;-73
2023/09/01 09:55:49;;;;;;;14.73;9.10;;;18.70;99.90;;;;;;5076415;28;20484;-73
2023/09/01 09:58:17;;;;;;;14.45;8.65;;;18.80;99.90;;;;;;5073053;28;20044;-73
2023/09/01 10:01:07;;;;;;;19.98;9.63;;;18.80;99.90;;;;;;5069012;28;20399;-72
2023/09/01 10:03:33;;;;;;;15.80;10.50;;;18.90;99.90;;;;;;5072289;28;20042;-70
2023/09/01 10:05:59;;;;;;;18.00;10.15;;;18.90;99.90;;;;;;5078025;28;20828;-70
2023/09/01 10:08:26;;;;;;;17.23;10.57;;;18.90;99.90;;;;;;5077173;28;20028;-70
2023/09/01 10:10:52;;;;;;;17.00;10.55;;;18.90;99.90;;;;;;5073242;28;20028;-70
2023/09/01 10:13:19;;;;;;;15.15;10.98;;;18.90;99.90;;;;;;5076722;28;20070;-71
2023/09/01 10:15:46;;;;;;;16.80;10.85;;;18.80;99.90;;;;;;5076689;28;20020;-71
2023/09/01 10:18:12;;;;;;;14.38;10.35;;;18.90;99.90;;;;;;5071154;28;20346;-71
2023/09/01 10:20:43;;;;;;;19.40;10.32;;;18.90;99.90;;;;;;5087374;28;20031;-71
2023/09/01 10:23:10;;;;;;;28.88;10.68;;;18.90;99.90;;;;;;5072573;28;20055;-70
2023/09/01 10:25:36;;;;;;;96.07;13.57;;;18.90;99.90;;;;;;5073816;28;20082;-70
2023/09/01 10:28:11;;;;;;;26.63;10.88;;;18.90;99.90;;;;;;5089493;28;20447;-70
2023/09/01 10:30:42;;;;;;;17.40;10.20;;;18.90;99.90;;;;;;5095130;28;20070;-70
2023/09/01 10:33:08;;;;;;;19.33;10.35;;;19.00;99.90;;;;;;5080434;28;20029;-72
2023/09/01 10:35:38;;;;;;;15.48;10.15;;;18.90;99.90;;;;;;5086931;28;20077;-71
2023/09/01 10:38:10;;;;;;;20.15;9.88;;;19.00;99.90;;;;;;5081904;28;20020;-72
2023/09/01 10:40:41;;;;;;;15.98;9.82;;;19.10;99.90;;;;;;5088572;28;20035;-72
2023/09/01 10:43:07;;;;;;;14.18;10.15;;;19.20;99.90;;;;;;5081103;28;20105;-71
2023/09/01 10:45:33;;;;;;;15.10;9.77;;;19.20;99.90;;;;;;5088981;28;20020;-72
2023/09/01 10:47:59;;;;;;;23.05;10.25;;;19.30;99.90;;;;;;5089359;28;20368;-71
2023/09/01 10:50:25;;;;;;;17.25;8.90;;;19.40;99.90;;;;;;5081805;28;20107;-72
2023/09/01 10:53:31;;;;;;;19.13;9.45;;;19.40;99.90;;;;;;5093694;28;20077;-71
2023/09/01 10:56:08;;;;;;;13.07;9.80;;;19.50;99.90;;;;;;5087377;28;20493;-71
2023/09/01 10:58:38;;;;;;;14.50;9.02;;;19.70;99.90;;;;;;5080243;28;20048;-72
2023/09/01 11:01:27;;;;;;;13.23;8.65;;;19.80;99.90;;;;;;5076516;28;20017;-72
2023/09/01 11:03:53;;;;;;;15.50;9.98;;;20.10;99.90;;;;;;5094502;28;20446;-71
2023/09/01 11:06:20;;;;;;;15.65;10.30;;;20.20;99.90;;;;;;5081140;28;20081;-71
2023/09/01 11:09:12;;;;;;;15.10;9.25;;;20.30;99.90;;;;;;5081006;28;20029;-72
2023/09/01 11:11:37;;;;;;;17.75;9.77;;;20.40;99.90;;;;;;5079739;28;20035;-72
2023/09/01 11:14:06;;;;;;;54.63;10.63;;;20.50;99.90;;;;;;5081066;28;20474;-71
2023/09/01 11:16:31;;;;;;;41.95;10.77;;;20.60;99.90;;;;;;5084520;28;20032;-73
2023/09/01 11:19:03;;;;;;;22.13;9.82;;;20.60;99.90;;;;;;5090845;28;20379;-72
2023/09/01 11:21:30;;;;;;;14.30;8.43;;;20.60;99.90;;;;;;5086263;28;20559;-71
2023/09/01 11:23:57;;;;;;;13.85;9.07;;;20.70;99.90;;;;;;5094676;28;20161;-71
2023/09/01 11:26:23;;;;;;;15.07;8.60;;;20.80;99.90;;;;;;5089790;28;20028;-73
2023/09/01 11:28:49;;;;;;;13.48;8.25;;;20.90;99.90;;;;;;5091239;28;20375;-72
2023/09/01 11:31:14;;;;;;;12.18;8.57;;;21.00;99.90;;;;;;5087656;28;20454;-72
2023/09/01 11:33:42;;;;;;;14.50;8.20;;;21.10;99.90;;;;;;5082155;28;20461;-72
2023/09/01 11:36:12;;;;;;;11.95;8.20;;;21.20;99.90;;;;;;5082931;28;20099;-72
2023/09/01 11:38:38;;;;;;;11.88;7.32;;;21.30;99.90;;;;;;5084091;28;20028;-73
2023/09/01 11:41:06;;;;;;;11.30;6.75;;;21.40;99.90;;;;;;5082664;28;20527;-73
2023/09/01 11:43:32;;;;;;;13.65;7.10;;;21.50;99.90;;;;;;5085112;28;20539;-71
2023/09/01 11:45:58;;;;;;;9.57;7.75;;;21.60;99.90;;;;;;5084198;28;20016;-73
2023/09/01 11:48:25;;;;;;;13.32;7.20;;;21.70;99.90;;;;;;5089310;28;20020;-72
2023/09/01 11:50:55;;;;;;;15.10;7.55;;;21.70;99.90;;;;;;5089829;28;20044;-70
2023/09/01 11:53:34;;;;;;;9.57;7.38;;;21.80;99.90;;;;;;5086896;28;20141;-70
2023/09/01 11:56:15;;;;;;;13.65;7.68;;;21.80;99.90;;;;;;5083174;28;20055;-70
2023/09/01 11:58:41;;;;;;;12.85;7.20;;;21.70;99.90;;;;;;5086855;28;20167;-69
2023/09/01 12:01:14;;;;;;;9.95;7.35;;;21.70;99.90;;;;;;5076606;28;20096;-69
2023/09/01 12:03:47;;;;;;;16.70;8.38;;;21.70;99.90;;;;;;5088016;28;20042;-69
2023/09/01 12:06:24;;;;;;;11.98;7.25;;;21.60;99.90;;;;;;5086527;28;20463;-70
2023/09/01 12:08:53;;;;;;;12.93;7.35;;;21.50;99.90;;;;;;5086229;28;20036;-71
2023/09/01 12:11:19;;;;;;;10.10;7.28;;;21.50;99.90;;;;;;5083561;28;20015;-71
2023/09/01 12:13:46;;;;;;;11.35;8.52;;;21.50;99.90;;;;;;5071933;28;20151;-72
2023/09/01 12:16:24;;;;;;;14.77;8.35;;;21.60;99.90;;;;;;5080047;28;20219;-70
2023/09/01 12:18:53;;;;;;;13.65;9.70;;;21.60;99.90;;;;;;5084191;28;20615;-71
2023/09/01 12:21:19;;;;;;;22.63;11.40;;;21.60;99.90;;;;;;5076276;28;20177;-70
2023/09/01 12:23:46;;;;;;;17.58;12.02;;;21.70;99.90;;;;;;5073164;28;20107;-71
2023/09/01 12:26:13;;;;;;;43.75;13.85;;;21.60;99.90;;;;;;5091144;28;20023;-70
2023/09/01 12:28:40;;;;;;;19.60;11.13;;;21.60;99.90;;;;;;5094881;28;20158;-71
2023/09/01 12:31:07;;;;;;;20.73;13.18;;;21.60;99.90;;;;;;5077874;28;20442;-71
2023/09/01 12:33:35;;;;;;;70.90;17.48;;;21.60;99.90;;;;;;5084580;28;20475;-72
2023/09/01 12:36:01;;;;;;;36.00;18.52;;;21.50;99.90;;;;;;5078296;28;20028;-71
2023/09/01 12:38:27;;;;;;;23.30;17.50;;;21.50;99.90;;;;;;5081166;28;20078;-70